sensor_id;sensor_type;location;lat;lon;timestamp;P1;durP1;ratioP1;P2;durP2;ratioP2
65545;SDS011;52177;55.968;37.498;2022-08-03T00:00:16;11.48;;;7.88;;
65545;SDS011;52177;55.968;37.498;2022-08-03T00:00:46;11.48;;;8.40;;
65545;SDS011;52177;55.968;37.498;2022-08-03T00:01:17;16.48;;;8.07;;
65545;SDS011;52177;55.968;37.498;2022-08-03T00:01:48;8.63;;;7.78;;
65545;SDS011;52177;55.968;37.498;2022-08-03T00:02:18;9.48;;;8.10;;
65545;SDS011;52177;55.968;37.498;2022-08-03T00:02:49;11.70;;;8.35;;
65545;SDS011;52177;55.968;37.498;2022-08-03T00:03:19;9.18;;;8.23;;
65545;SDS011;52177;55.968;37.498;2022-08-03T00:03:49;10.63;;;7.65;;
65545;SDS011;52177;55.968;37.498;2022-08-03T00:04:20;13.07;;;8.25;;
65545;SDS011;52177;55.968;37.498;2022-08-03T00:04:50;10.68;;;8.32;;
65545;SDS011;52177;55.968;37.498;2022-08-03T00:05:21;11.02;;;8.15;;
65545;SDS011;52177;55.968;37.498;2022-08-03T00:05:51;9.32;;;8.25;;
65545;SDS011;52177;55.968;37.498;2022-08-03T00:06:22;11.98;;;7.93;;
65545;SDS011;52177;55.968;37.498;2022-08-03T00:06:52;10.52;;;7.72;;
65545;SDS011;52177;55.968;37.498;2022-08-03T00:07:23;11.52;;;8.13;;
65545;SDS011;52177;55.968;37.498;2022-08-03T00:07:53;13.90;;;7.97;;
65545;SDS011;52177;55.968;37.498;2022-08-03T00:08:24;9.63;;;8.10;;
65545;SDS011;52177;55.968;37.498;2022-08-03T00:08:54;8.88;;;8.05;;
65545;SDS011;52177;55.968;37.498;2022-08-03T00:09:25;11.05;;;8.23;;
65545;SDS011;52177;55.968;37.498;2022-08-03T00:09:55;9.07;;;7.60;;
65545;SDS011;52177;55.968;37.498;2022-08-03T00:10:25;9.88;;;7.75;;
65545;SDS011;52177;55.968;37.498;2022-08-03T00:10:56;8.52;;;7.63;;
65545;SDS011;52177;55.968;37.498;2022-08-03T00:11:26;10.45;;;8.05;;
65545;SDS011;52177;55.968;37.498;2022-08-03T00:11:57;9.02;;;7.78;;
65545;SDS011;52177;55.968;37.498;2022-08-03T00:12:27;10.75;;;8.25;;
65545;SDS011;52177;55.968;37.498;2022-08-03T00:12:57;12.13;;;7.95;;
65545;SDS011;52177;55.968;37.498;2022-08-03T00:13:28;9.75;;;7.40;;
65545;SDS011;52177;55.968;37.498;2022-08-03T00:13:59;16.10;;;7.82;;
65545;SDS011;52177;55.968;37.498;2022-08-03T00:14:29;9.88;;;7.88;;
65545;SDS011;52177;55.968;37.498;2022-08-03T00:15:00;12.10;;;7.75;;
65545;SDS011;52177;55.968;37.498;2022-08-03T00:15:30;10.48;;;7.30;;
65545;SDS011;52177;55.968;37.498;2022-08-03T00:16:01;9.95;;;7.35;;
65545;SDS011;52177;55.968;37.498;2022-08-03T00:16:32;9.57;;;7.65;;
65545;SDS011;52177;55.968;37.498;2022-08-03T00:17:02;8.25;;;7.40;;
65545;SDS011;52177;55.968;37.498;2022-08-03T00:17:33;10.00;;;7.55;;
65545;SDS011;52177;55.968;37.498;2022-08-03T00:18:03;9.25;;;7.80;;
65545;SDS011;52177;55.968;37.498;2022-08-03T00:18:33;11.23;;;7.65;;
65545;SDS011;52177;55.968;37.498;2022-08-03T00:19:04;8.13;;;7.28;;
65545;SDS011;52177;55.968;37.498;2022-08-03T00:19:34;9.35;;;7.40;;
65545;SDS011;52177;55.968;37.498;2022-08-03T00:20:05;8.95;;;7.50;;
65545;SDS011;52177;55.968;37.498;2022-08-03T00:20:35;8.38;;;7.43;;
65545;SDS011;52177;55.968;37.498;2022-08-03T00:21:06;8.57;;;7.00;;
65545;SDS011;52177;55.968;37.498;2022-08-03T00:21:36;11.02;;;7.28;;
65545;SDS011;52177;55.968;37.498;2022-08-03T00:22:07;8.40;;;7.35;;
65545;SDS011;52177;55.968;37.498;2022-08-03T00:22:37;8.27;;;7.22;;
65545;SDS011;52177;55.968;37.498;2022-08-03T00:23:08;8.77;;;7.72;;
65545;SDS011;52177;55.968;37.498;2022-08-03T00:23:38;8.27;;;7.22;;
65545;SDS011;52177;55.968;37.498;2022-08-03T00:24:08;10.10;;;7.60;;
65545;SDS011;52177;55.968;37.498;2022-08-03T00:24:39;11.43;;;7.38;;
65545;SDS011;52177;55.968;37.498;2022-08-03T00:25:09;10.18;;;7.40;;
65545;SDS011;52177;55.968;37.498;2022-08-03T00:25:40;9.55;;;7.63;;
65545;SDS011;52177;55.968;37.498;2022-08-03T00:26:10;11.60;;;7.45;;
65545;SDS011;52177;55.968;37.498;2022-08-03T00:26:41;8.07;;;7.20;;
65545;SDS011;52177;55.968;37.498;2022-08-03T00:27:11;9.55;;;7.68;;
65545;SDS011;52177;55.968;37.498;2022-08-03T00:27:41;11.18;;;7.65;;
65545;SDS011;52177;55.968;37.498;2022-08-03T00:28:12;9.60;;;7.57;;
65545;SDS011;52177;55.968;37.498;2022-08-03T00:28:42;7.95;;;7.15;;
65545;SDS011;52177;55.968;37.498;2022-08-03T00:29:13;7.88;;;7.07;;
65545;SDS011;52177;55.968;37.498;2022-08-03T00:29:43;8.57;;;7.22;;
65545;SDS011;52177;55.968;37.498;2022-08-03T00:30:13;9.68;;;7.70;;
65545;SDS011;52177;55.968;37.498;2022-08-03T00:30:44;8.73;;;7.85;;
65545;SDS011;52177;55.968;37.498;2022-08-03T00:31:14;9.50;;;7.20;;
65545;SDS011;52177;55.968;37.498;2022-08-03T00:31:45;8.07;;;7.25;;
65545;SDS011;52177;55.968;37.498;2022-08-03T00:32:16;7.85;;;7.03;;
65545;SDS011;52177;55.968;37.498;2022-08-03T00:32:46;8.77;;;7.15;;
65545;SDS011;52177;55.968;37.498;2022-08-03T00:33:16;9.18;;;7.25;;
65545;SDS011;52177;55.968;37.498;2022-08-03T00:33:47;8.40;;;7.40;;
65545;SDS011;52177;55.968;37.498;2022-08-03T00:34:17;8.90;;;7.55;;
65545;SDS011;52177;55.968;37.498;2022-08-03T00:34:48;8.38;;;7.50;;
65545;SDS011;52177;55.968;37.498;2022-08-03T00:35:18;12.30;;;7.43;;
65545;SDS011;52177;55.968;37.498;2022-08-03T00:35:49;7.75;;;7.05;;
65545;SDS011;52177;55.968;37.498;2022-08-03T00:36:20;8.00;;;6.93;;
65545;SDS011;52177;55.968;37.498;2022-08-03T00:36:50;11.60;;;7.85;;
65545;SDS011;52177;55.968;37.498;2022-08-03T00:37:21;8.50;;;7.25;;
65545;SDS011;52177;55.968;37.498;2022-08-03T00:37:51;9.55;;;7.43;;
65545;SDS011;52177;55.968;37.498;2022-08-03T00:38:22;9.82;;;7.32;;
65545;SDS011;52177;55.968;37.498;2022-08-03T00:38:52;8.07;;;6.93;;
65545;SDS011;52177;55.968;37.498;2022-08-03T00:39:22;7.95;;;7.05;;
65545;SDS011;52177;55.968;37.498;2022-08-03T00:39:53;10.98;;;7.80;;
65545;SDS011;52177;55.968;37.498;2022-08-03T00:40:23;8.95;;;7.30;;
65545;SDS011;52177;55.968;37.498;2022-08-03T00:40:54;9.60;;;7.40;;
65545;SDS011;52177;55.968;37.498;2022-08-03T00:41:25;9.32;;;7.47;;
65545;SDS011;52177;55.968;37.498;2022-08-03T00:41:56;9.23;;;7.35;;
65545;SDS011;52177;55.968;37.498;2022-08-03T00:42:26;8.20;;;7.05;;
65545;SDS011;52177;55.968;37.498;2022-08-03T00:43:01;8.48;;;6.78;;
65545;SDS011;52177;55.968;37.498;2022-08-03T00:43:34;11.85;;;7.65;;
65545;SDS011;52177;55.968;37.498;2022-08-03T00:44:04;11.57;;;7.82;;
65545;SDS011;52177;55.968;37.498;2022-08-03T00:44:38;10.40;;;7.30;;
65545;SDS011;52177;55.968;37.498;2022-08-03T00:45:10;10.52;;;7.47;;
65545;SDS011;52177;55.968;37.498;2022-08-03T00:45:41;8.88;;;7.20;;
65545;SDS011;52177;55.968;37.498;2022-08-03T00:46:12;9.20;;;7.18;;
65545;SDS011;52177;55.968;37.498;2022-08-03T00:46:42;12.43;;;7.57;;
65545;SDS011;52177;55.968;37.498;2022-08-03T00:47:13;10.80;;;7.30;;
65545;SDS011;52177;55.968;37.498;2022-08-03T00:47:43;8.70;;;7.05;;
65545;SDS011;52177;55.968;37.498;2022-08-03T00:48:14;12.43;;;6.93;;
65545;SDS011;52177;55.968;37.498;2022-08-03T00:48:45;7.95;;;7.22;;
65545;SDS011;52177;55.968;37.498;2022-08-03T00:49:15;10.05;;;7.40;;
65545;SDS011;52177;55.968;37.498;2022-08-03T00:49:45;8.15;;;7.15;;
65545;SDS011;52177;55.968;37.498;2022-08-03T00:50:16;7.43;;;6.72;;
65545;SDS011;52177;55.968;37.498;2022-08-03T00:50:48;8.48;;;7.35;;
65545;SDS011;52177;55.968;37.498;2022-08-03T00:51:19;9.90;;;7.57;;
65545;SDS011;52177;55.968;37.498;2022-08-03T00:51:51;8.25;;;7.07;;
65545;SDS011;52177;55.968;37.498;2022-08-03T00:52:21;10.52;;;7.72;;
65545;SDS011;52177;55.968;37.498;2022-08-03T00:52:52;11.63;;;7.45;;
65545;SDS011;52177;55.968;37.498;2022-08-03T00:53:24;7.95;;;7.15;;
65545;SDS011;52177;55.968;37.498;2022-08-03T00:53:56;8.50;;;7.28;;
65545;SDS011;52177;55.968;37.498;2022-08-03T00:54:26;9.75;;;7.45;;
65545;SDS011;52177;55.968;37.498;2022-08-03T00:54:57;8.05;;;7.15;;
65545;SDS011;52177;55.968;37.498;2022-08-03T00:55:27;9.43;;;7.57;;
65545;SDS011;52177;55.968;37.498;2022-08-03T00:55:58;9.05;;;7.30;;
65545;SDS011;52177;55.968;37.498;2022-08-03T00:56:29;11.90;;;7.53;;
65545;SDS011;52177;55.968;37.498;2022-08-03T00:56:59;10.82;;;7.20;;
65545;SDS011;52177;55.968;37.498;2022-08-03T00:57:30;11.02;;;7.65;;
65545;SDS011;52177;55.968;37.498;2022-08-03T00:58:02;9.45;;;6.88;;
65545;SDS011;52177;55.968;37.498;2022-08-03T00:58:36;9.40;;;7.40;;
65545;SDS011;52177;55.968;37.498;2022-08-03T00:59:08;7.88;;;7.07;;
65545;SDS011;52177;55.968;37.498;2022-08-03T00:59:39;8.73;;;7.18;;
65545;SDS011;52177;55.968;37.498;2022-08-03T01:00:11;10.07;;;7.47;;
65545;SDS011;52177;55.968;37.498;2022-08-03T01:00:44;11.57;;;7.30;;
65545;SDS011;52177;55.968;37.498;2022-08-03T01:01:14;13.20;;;7.30;;
65545;SDS011;52177;55.968;37.498;2022-08-03T01:01:44;8.68;;;7.13;;
65545;SDS011;52177;55.968;37.498;2022-08-03T01:02:15;8.80;;;7.13;;
65545;SDS011;52177;55.968;37.498;2022-08-03T01:02:46;8.57;;;7.30;;
65545;SDS011;52177;55.968;37.498;2022-08-03T01:03:16;9.63;;;7.38;;
65545;SDS011;52177;55.968;37.498;2022-08-03T01:03:47;9.68;;;7.13;;
65545;SDS011;52177;55.968;37.498;2022-08-03T01:04:17;10.18;;;7.28;;
65545;SDS011;52177;55.968;37.498;2022-08-03T01:04:47;8.30;;;7.25;;
65545;SDS011;52177;55.968;37.498;2022-08-03T01:05:19;8.10;;;7.40;;
65545;SDS011;52177;55.968;37.498;2022-08-03T01:06:42;9.07;;;7.15;;
65545;SDS011;52177;55.968;37.498;2022-08-03T01:12:07;11.38;;;7.30;;
65545;SDS011;52177;55.968;37.498;2022-08-03T01:12:31;7.53;;;6.68;;
65545;SDS011;52177;55.968;37.498;2022-08-03T01:14:03;9.15;;;7.47;;
65545;SDS011;52177;55.968;37.498;2022-08-03T01:14:46;9.60;;;6.25;;
65545;SDS011;52177;55.968;37.498;2022-08-03T01:15:42;9.95;;;7.75;;
65545;SDS011;52177;55.968;37.498;2022-08-03T01:17:19;10.77;;;7.00;;
65545;SDS011;52177;55.968;37.498;2022-08-03T01:18:51;8.20;;;6.93;;
65545;SDS011;52177;55.968;37.498;2022-08-03T01:20:23;8.30;;;7.15;;
65545;SDS011;52177;55.968;37.498;2022-08-03T01:20:56;7.82;;;7.10;;
65545;SDS011;52177;55.968;37.498;2022-08-03T01:25:01;10.40;;;7.32;;
65545;SDS011;52177;55.968;37.498;2022-08-03T01:27:42;10.05;;;7.25;;
65545;SDS011;52177;55.968;37.498;2022-08-03T01:28:27;9.63;;;6.97;;
65545;SDS011;52177;55.968;37.498;2022-08-03T01:30:09;10.10;;;7.07;;
65545;SDS011;52177;55.968;37.498;2022-08-03T01:30:42;8.68;;;7.18;;
65545;SDS011;52177;55.968;37.498;2022-08-03T01:31:16;7.78;;;7.03;;
65545;SDS011;52177;55.968;37.498;2022-08-03T01:32:00;9.88;;;7.47;;
65545;SDS011;52177;55.968;37.498;2022-08-03T01:33:24;8.35;;;7.00;;
65545;SDS011;52177;55.968;37.498;2022-08-03T01:34:09;8.15;;;7.32;;
65545;SDS011;52177;55.968;37.498;2022-08-03T01:34:45;8.60;;;7.78;;
65545;SDS011;52177;55.968;37.498;2022-08-03T01:35:25;10.55;;;7.63;;
65545;SDS011;52177;55.968;37.498;2022-08-03T01:36:06;7.80;;;7.00;;
65545;SDS011;52177;55.968;37.498;2022-08-03T01:36:42;8.77;;;7.22;;
65545;SDS011;52177;55.968;37.498;2022-08-03T01:37:17;7.97;;;7.20;;
65545;SDS011;52177;55.968;37.498;2022-08-03T01:37:57;7.97;;;7.28;;
65545;SDS011;52177;55.968;37.498;2022-08-03T01:38:36;9.23;;;7.28;;
65545;SDS011;52177;55.968;37.498;2022-08-03T01:39:13;9.15;;;7.05;;
65545;SDS011;52177;55.968;37.498;2022-08-03T01:39:46;8.50;;;7.32;;
65545;SDS011;52177;55.968;37.498;2022-08-03T01:40:18;7.97;;;7.20;;
65545;SDS011;52177;55.968;37.498;2022-08-03T01:40:51;8.93;;;6.97;;
65545;SDS011;52177;55.968;37.498;2022-08-03T01:41:24;9.73;;;7.30;;
65545;SDS011;52177;55.968;37.498;2022-08-03T01:42:00;8.13;;;7.30;;
65545;SDS011;52177;55.968;37.498;2022-08-03T01:42:37;8.02;;;7.32;;
65545;SDS011;52177;55.968;37.498;2022-08-03T01:43:13;9.93;;;7.22;;
65545;SDS011;52177;55.968;37.498;2022-08-03T01:43:47;9.90;;;7.43;;
65545;SDS011;52177;55.968;37.498;2022-08-03T01:44:19;8.57;;;7.20;;
65545;SDS011;52177;55.968;37.498;2022-08-03T01:44:52;9.05;;;7.30;;
65545;SDS011;52177;55.968;37.498;2022-08-03T01:45:26;7.90;;;7.10;;
65545;SDS011;52177;55.968;37.498;2022-08-03T01:45:57;7.88;;;7.18;;
65545;SDS011;52177;55.968;37.498;2022-08-03T01:46:29;13.13;;;7.00;;
65545;SDS011;52177;55.968;37.498;2022-08-03T01:47:01;9.40;;;6.90;;
65545;SDS011;52177;55.968;37.498;2022-08-03T01:47:33;8.02;;;7.03;;
65545;SDS011;52177;55.968;37.498;2022-08-03T01:48:04;7.82;;;6.75;;
65545;SDS011;52177;55.968;37.498;2022-08-03T01:48:37;8.85;;;6.93;;
65545;SDS011;52177;55.968;37.498;2022-08-03T01:49:11;8.20;;;6.65;;
65545;SDS011;52177;55.968;37.498;2022-08-03T01:49:42;10.77;;;7.07;;
65545;SDS011;52177;55.968;37.498;2022-08-03T01:50:14;8.82;;;6.72;;
65545;SDS011;52177;55.968;37.498;2022-08-03T01:50:48;8.50;;;7.38;;
65545;SDS011;52177;55.968;37.498;2022-08-03T01:51:20;9.43;;;7.18;;
65545;SDS011;52177;55.968;37.498;2022-08-03T01:51:51;8.27;;;7.07;;
65545;SDS011;52177;55.968;37.498;2022-08-03T01:52:23;8.35;;;7.18;;
65545;SDS011;52177;55.968;37.498;2022-08-03T01:52:54;9.32;;;7.03;;
65545;SDS011;52177;55.968;37.498;2022-08-03T01:53:26;7.43;;;6.60;;
65545;SDS011;52177;55.968;37.498;2022-08-03T01:54:00;9.18;;;6.95;;
65545;SDS011;52177;55.968;37.498;2022-08-03T01:54:36;8.40;;;6.47;;
65545;SDS011;52177;55.968;37.498;2022-08-03T01:55:11;7.18;;;6.55;;
65545;SDS011;52177;55.968;37.498;2022-08-03T01:55:44;10.43;;;7.40;;
65545;SDS011;52177;55.968;37.498;2022-08-03T01:56:18;8.13;;;6.22;;
65545;SDS011;52177;55.968;37.498;2022-08-03T01:56:51;10.48;;;6.80;;
65545;SDS011;52177;55.968;37.498;2022-08-03T01:57:23;7.68;;;6.88;;
65545;SDS011;52177;55.968;37.498;2022-08-03T01:57:55;8.30;;;7.43;;
65545;SDS011;52177;55.968;37.498;2022-08-03T01:58:30;9.80;;;7.40;;
65545;SDS011;52177;55.968;37.498;2022-08-03T01:59:04;11.52;;;7.05;;
65545;SDS011;52177;55.968;37.498;2022-08-03T01:59:36;7.70;;;6.93;;
65545;SDS011;52177;55.968;37.498;2022-08-03T02:00:09;9.05;;;7.10;;
65545;SDS011;52177;55.968;37.498;2022-08-03T02:00:40;11.48;;;6.95;;
65545;SDS011;52177;55.968;37.498;2022-08-03T02:01:12;8.32;;;7.45;;
65545;SDS011;52177;55.968;37.498;2022-08-03T02:01:46;9.18;;;7.05;;
65545;SDS011;52177;55.968;37.498;2022-08-03T02:02:18;13.20;;;6.90;;
65545;SDS011;52177;55.968;37.498;2022-08-03T02:02:49;9.38;;;6.95;;
65545;SDS011;52177;55.968;37.498;2022-08-03T02:03:23;8.80;;;7.00;;
65545;SDS011;52177;55.968;37.498;2022-08-03T02:03:54;12.32;;;6.55;;
65545;SDS011;52177;55.968;37.498;2022-08-03T02:04:28;7.78;;;6.97;;
65545;SDS011;52177;55.968;37.498;2022-08-03T02:04:59;11.20;;;7.05;;
65545;SDS011;52177;55.968;37.498;2022-08-03T02:05:32;7.45;;;6.75;;
65545;SDS011;52177;55.968;37.498;2022-08-03T02:06:04;8.32;;;7.00;;
65545;SDS011;52177;55.968;37.498;2022-08-03T02:06:35;14.25;;;7.25;;
65545;SDS011;52177;55.968;37.498;2022-08-03T02:07:09;8.55;;;6.60;;
65545;SDS011;52177;55.968;37.498;2022-08-03T02:07:41;10.75;;;6.65;;
65545;SDS011;52177;55.968;37.498;2022-08-03T02:08:14;8.65;;;6.80;;
65545;SDS011;52177;55.968;37.498;2022-08-03T02:08:45;6.97;;;6.38;;
65545;SDS011;52177;55.968;37.498;2022-08-03T02:09:19;9.57;;;6.75;;
65545;SDS011;52177;55.968;37.498;2022-08-03T02:09:51;8.20;;;6.63;;
65545;SDS011;52177;55.968;37.498;2022-08-03T02:10:23;9.32;;;7.10;;
65545;SDS011;52177;55.968;37.498;2022-08-03T02:10:56;10.63;;;6.60;;
65545;SDS011;52177;55.968;37.498;2022-08-03T02:11:29;7.03;;;6.35;;
65545;SDS011;52177;55.968;37.498;2022-08-03T02:12:00;7.65;;;6.88;;
65545;SDS011;52177;55.968;37.498;2022-08-03T02:12:32;9.73;;;7.13;;
65545;SDS011;52177;55.968;37.498;2022-08-03T02:13:04;7.28;;;6.55;;
65545;SDS011;52177;55.968;37.498;2022-08-03T02:13:36;7.63;;;6.78;;
65545;SDS011;52177;55.968;37.498;2022-08-03T02:14:08;9.77;;;7.03;;
65545;SDS011;52177;55.968;37.498;2022-08-03T02:14:40;11.38;;;7.03;;
65545;SDS011;52177;55.968;37.498;2022-08-03T02:15:14;7.43;;;6.72;;
65545;SDS011;52177;55.968;37.498;2022-08-03T02:15:45;7.20;;;6.22;;
65545;SDS011;52177;55.968;37.498;2022-08-03T02:16:17;7.45;;;6.25;;
65545;SDS011;52177;55.968;37.498;2022-08-03T02:16:48;9.40;;;6.78;;
65545;SDS011;52177;55.968;37.498;2022-08-03T02:17:20;9.68;;;6.82;;
65545;SDS011;52177;55.968;37.498;2022-08-03T02:17:53;10.05;;;6.70;;
65545;SDS011;52177;55.968;37.498;2022-08-03T02:18:26;9.52;;;6.72;;
65545;SDS011;52177;55.968;37.498;2022-08-03T02:18:58;9.48;;;6.75;;
65545;SDS011;52177;55.968;37.498;2022-08-03T02:19:30;8.60;;;7.13;;
65545;SDS011;52177;55.968;37.498;2022-08-03T02:20:03;7.72;;;6.80;;
65545;SDS011;52177;55.968;37.498;2022-08-03T02:20:36;9.27;;;7.50;;
65545;SDS011;52177;55.968;37.498;2022-08-03T02:21:09;9.13;;;6.80;;
65545;SDS011;52177;55.968;37.498;2022-08-03T02:21:40;10.18;;;6.88;;
65545;SDS011;52177;55.968;37.498;2022-08-03T02:22:13;7.78;;;6.30;;
65545;SDS011;52177;55.968;37.498;2022-08-03T02:22:44;7.68;;;6.57;;
65545;SDS011;52177;55.968;37.498;2022-08-03T02:23:15;7.43;;;6.70;;
65545;SDS011;52177;55.968;37.498;2022-08-03T02:23:47;7.95;;;7.10;;
65545;SDS011;52177;55.968;37.498;2022-08-03T02:24:18;7.90;;;6.60;;
65545;SDS011;52177;55.968;37.498;2022-08-03T02:24:48;7.57;;;6.78;;
65545;SDS011;52177;55.968;37.498;2022-08-03T02:25:19;9.32;;;6.72;;
65545;SDS011;52177;55.968;37.498;2022-08-03T02:25:51;10.48;;;6.97;;
65545;SDS011;52177;55.968;37.498;2022-08-03T02:26:28;7.93;;;6.80;;
65545;SDS011;52177;55.968;37.498;2022-08-03T02:26:59;11.15;;;6.93;;
65545;SDS011;52177;55.968;37.498;2022-08-03T02:27:30;7.05;;;6.35;;
65545;SDS011;52177;55.968;37.498;2022-08-03T02:28:05;6.35;;;5.72;;
65545;SDS011;52177;55.968;37.498;2022-08-03T02:28:40;8.07;;;7.00;;
65545;SDS011;52177;55.968;37.498;2022-08-03T02:29:14;10.45;;;6.53;;
65545;SDS011;52177;55.968;37.498;2022-08-03T02:30:04;10.57;;;6.95;;
65545;SDS011;52177;55.968;37.498;2022-08-03T02:30:38;10.45;;;7.00;;
65545;SDS011;52177;55.968;37.498;2022-08-03T02:31:12;10.00;;;6.63;;
65545;SDS011;52177;55.968;37.498;2022-08-03T02:31:45;10.88;;;6.55;;
65545;SDS011;52177;55.968;37.498;2022-08-03T02:32:20;11.45;;;7.25;;
65545;SDS011;52177;55.968;37.498;2022-08-03T02:32:57;8.65;;;6.93;;
65545;SDS011;52177;55.968;37.498;2022-08-03T02:33:35;10.05;;;7.15;;
65545;SDS011;52177;55.968;37.498;2022-08-03T02:34:11;9.90;;;6.57;;
65545;SDS011;52177;55.968;37.498;2022-08-03T02:34:45;8.45;;;7.00;;
65545;SDS011;52177;55.968;37.498;2022-08-03T02:35:18;7.93;;;7.13;;
65545;SDS011;52177;55.968;37.498;2022-08-03T02:35:51;9.93;;;6.70;;
65545;SDS011;52177;55.968;37.498;2022-08-03T02:36:24;8.32;;;6.80;;
65545;SDS011;52177;55.968;37.498;2022-08-03T02:36:57;7.95;;;6.80;;
65545;SDS011;52177;55.968;37.498;2022-08-03T02:37:33;7.55;;;6.70;;
65545;SDS011;52177;55.968;37.498;2022-08-03T02:38:11;10.77;;;7.10;;
65545;SDS011;52177;55.968;37.498;2022-08-03T02:38:46;7.57;;;6.75;;
65545;SDS011;52177;55.968;37.498;2022-08-03T02:39:20;10.63;;;6.95;;
65545;SDS011;52177;55.968;37.498;2022-08-03T02:39:56;8.93;;;6.63;;
65545;SDS011;52177;55.968;37.498;2022-08-03T02:40:31;10.52;;;6.82;;
65545;SDS011;52177;55.968;37.498;2022-08-03T02:41:03;7.63;;;6.78;;
65545;SDS011;52177;55.968;37.498;2022-08-03T02:41:37;8.73;;;7.03;;
65545;SDS011;52177;55.968;37.498;2022-08-03T02:42:14;12.82;;;7.00;;
65545;SDS011;52177;55.968;37.498;2022-08-03T02:42:48;9.13;;;6.68;;
65545;SDS011;52177;55.968;37.498;2022-08-03T02:43:22;9.13;;;6.80;;
65545;SDS011;52177;55.968;37.498;2022-08-03T02:43:54;9.32;;;6.20;;
65545;SDS011;52177;55.968;37.498;2022-08-03T02:44:27;10.32;;;6.60;;
65545;SDS011;52177;55.968;37.498;2022-08-03T02:45:02;11.35;;;6.90;;
65545;SDS011;52177;55.968;37.498;2022-08-03T02:45:38;7.13;;;6.30;;
65545;SDS011;52177;55.968;37.498;2022-08-03T02:46:13;7.93;;;6.75;;
65545;SDS011;52177;55.968;37.498;2022-08-03T02:46:48;9.10;;;7.10;;
65545;SDS011;52177;55.968;37.498;2022-08-03T02:47:25;7.93;;;6.43;;
65545;SDS011;52177;55.968;37.498;2022-08-03T02:47:59;7.13;;;6.43;;
65545;SDS011;52177;55.968;37.498;2022-08-03T02:48:33;7.70;;;6.97;;
65545;SDS011;52177;55.968;37.498;2022-08-03T02:49:06;8.13;;;6.97;;
65545;SDS011;52177;55.968;37.498;2022-08-03T02:49:38;7.75;;;6.78;;
65545;SDS011;52177;55.968;37.498;2022-08-03T02:50:11;7.47;;;6.60;;
65545;SDS011;52177;55.968;37.498;2022-08-03T02:50:43;9.52;;;6.65;;
65545;SDS011;52177;55.968;37.498;2022-08-03T02:51:15;9.63;;;6.68;;
65545;SDS011;52177;55.968;37.498;2022-08-03T02:51:48;8.70;;;6.68;;
65545;SDS011;52177;55.968;37.498;2022-08-03T02:52:23;10.80;;;6.35;;
65545;SDS011;52177;55.968;37.498;2022-08-03T02:52:57;9.60;;;6.78;;
65545;SDS011;52177;55.968;37.498;2022-08-03T02:53:29;8.82;;;6.85;;
65545;SDS011;52177;55.968;37.498;2022-08-03T02:54:01;9.98;;;7.13;;
65545;SDS011;52177;55.968;37.498;2022-08-03T02:54:32;10.52;;;6.88;;
65545;SDS011;52177;55.968;37.498;2022-08-03T02:55:05;7.53;;;6.78;;
65545;SDS011;52177;55.968;37.498;2022-08-03T02:55:38;10.20;;;7.13;;
65545;SDS011;52177;55.968;37.498;2022-08-03T02:56:10;9.18;;;7.10;;
65545;SDS011;52177;55.968;37.498;2022-08-03T02:56:42;9.93;;;6.75;;
65545;SDS011;52177;55.968;37.498;2022-08-03T02:57:15;8.30;;;6.63;;
65545;SDS011;52177;55.968;37.498;2022-08-03T02:57:48;9.38;;;6.75;;
65545;SDS011;52177;55.968;37.498;2022-08-03T02:58:19;10.57;;;7.03;;
65545;SDS011;52177;55.968;37.498;2022-08-03T02:58:52;7.15;;;6.40;;
65545;SDS011;52177;55.968;37.498;2022-08-03T02:59:25;7.22;;;6.43;;
65545;SDS011;52177;55.968;37.498;2022-08-03T02:59:57;7.82;;;7.13;;
65545;SDS011;52177;55.968;37.498;2022-08-03T03:00:30;7.53;;;6.72;;
65545;SDS011;52177;55.968;37.498;2022-08-03T03:01:02;7.43;;;6.57;;
65545;SDS011;52177;55.968;37.498;2022-08-03T03:01:33;7.30;;;6.50;;
65545;SDS011;52177;55.968;37.498;2022-08-03T03:02:03;8.70;;;7.68;;
65545;SDS011;52177;55.968;37.498;2022-08-03T03:02:34;7.30;;;6.60;;
65545;SDS011;52177;55.968;37.498;2022-08-03T03:03:06;8.50;;;6.60;;
65545;SDS011;52177;55.968;37.498;2022-08-03T03:03:36;7.35;;;6.40;;
65545;SDS011;52177;55.968;37.498;2022-08-03T03:04:09;7.20;;;6.50;;
65545;SDS011;52177;55.968;37.498;2022-08-03T03:04:41;8.20;;;6.40;;
65545;SDS011;52177;55.968;37.498;2022-08-03T03:05:12;7.20;;;6.32;;
65545;SDS011;52177;55.968;37.498;2022-08-03T03:05:44;7.50;;;6.35;;
65545;SDS011;52177;55.968;37.498;2022-08-03T03:06:15;7.13;;;6.32;;
65545;SDS011;52177;55.968;37.498;2022-08-03T03:06:48;9.52;;;6.80;;
65545;SDS011;52177;55.968;37.498;2022-08-03T03:07:20;9.13;;;6.38;;
65545;SDS011;52177;55.968;37.498;2022-08-03T03:07:52;7.40;;;6.80;;
65545;SDS011;52177;55.968;37.498;2022-08-03T03:08:24;7.55;;;6.72;;
65545;SDS011;52177;55.968;37.498;2022-08-03T03:08:56;8.25;;;6.80;;
65545;SDS011;52177;55.968;37.498;2022-08-03T03:09:28;6.88;;;6.25;;
65545;SDS011;52177;55.968;37.498;2022-08-03T03:10:00;9.13;;;6.45;;
65545;SDS011;52177;55.968;37.498;2022-08-03T03:10:33;8.60;;;6.63;;
65545;SDS011;52177;55.968;37.498;2022-08-03T03:11:03;7.95;;;6.70;;
65545;SDS011;52177;55.968;37.498;2022-08-03T03:11:35;10.10;;;7.10;;
65545;SDS011;52177;55.968;37.498;2022-08-03T03:12:08;8.80;;;6.80;;
65545;SDS011;52177;55.968;37.498;2022-08-03T03:12:40;7.63;;;6.25;;
65545;SDS011;52177;55.968;37.498;2022-08-03T03:13:12;8.38;;;6.93;;
65545;SDS011;52177;55.968;37.498;2022-08-03T03:13:44;10.68;;;6.80;;
65545;SDS011;52177;55.968;37.498;2022-08-03T03:14:17;10.50;;;6.82;;
65545;SDS011;52177;55.968;37.498;2022-08-03T03:14:48;9.50;;;6.45;;
65545;SDS011;52177;55.968;37.498;2022-08-03T03:15:19;7.35;;;6.65;;
65545;SDS011;52177;55.968;37.498;2022-08-03T03:15:51;7.93;;;6.50;;
65545;SDS011;52177;55.968;37.498;2022-08-03T03:16:23;12.02;;;7.30;;
65545;SDS011;52177;55.968;37.498;2022-08-03T03:16:55;7.70;;;6.68;;
65545;SDS011;52177;55.968;37.498;2022-08-03T03:17:26;7.28;;;6.65;;
65545;SDS011;52177;55.968;37.498;2022-08-03T03:17:56;7.53;;;6.70;;
65545;SDS011;52177;55.968;37.498;2022-08-03T03:18:30;12.77;;;6.65;;
65545;SDS011;52177;55.968;37.498;2022-08-03T03:19:03;7.65;;;6.93;;
65545;SDS011;52177;55.968;37.498;2022-08-03T03:19:34;10.48;;;6.70;;
65545;SDS011;52177;55.968;37.498;2022-08-03T03:20:08;8.07;;;6.40;;
65545;SDS011;52177;55.968;37.498;2022-08-03T03:20:39;7.75;;;6.63;;
65545;SDS011;52177;55.968;37.498;2022-08-03T03:21:10;9.88;;;6.82;;
65545;SDS011;52177;55.968;37.498;2022-08-03T03:21:42;9.02;;;6.80;;
65545;SDS011;52177;55.968;37.498;2022-08-03T03:22:13;9.45;;;6.88;;
65545;SDS011;52177;55.968;37.498;2022-08-03T03:22:46;7.18;;;6.47;;
65545;SDS011;52177;55.968;37.498;2022-08-03T03:23:19;10.05;;;6.88;;
65545;SDS011;52177;55.968;37.498;2022-08-03T03:23:51;8.93;;;6.85;;
65545;SDS011;52177;55.968;37.498;2022-08-03T03:24:21;7.90;;;6.85;;
65545;SDS011;52177;55.968;37.498;2022-08-03T03:24:52;9.48;;;7.10;;
65545;SDS011;52177;55.968;37.498;2022-08-03T03:25:24;7.60;;;6.93;;
65545;SDS011;52177;55.968;37.498;2022-08-03T03:25:55;11.52;;;7.00;;
65545;SDS011;52177;55.968;37.498;2022-08-03T03:26:27;8.88;;;6.97;;
65545;SDS011;52177;55.968;37.498;2022-08-03T03:26:58;7.97;;;6.78;;
65545;SDS011;52177;55.968;37.498;2022-08-03T03:27:29;7.85;;;6.88;;
65545;SDS011;52177;55.968;37.498;2022-08-03T03:27:59;7.68;;;6.88;;
65545;SDS011;52177;55.968;37.498;2022-08-03T03:28:31;7.55;;;6.85;;